sensor_id;sensor_type;location;lat;lon;timestamp;P1;durP1;ratioP1;P2;durP2;ratioP2
1775;SDS011;885;42.626;23.200;2022-07-29T00:01:37;10.30;;;7.60;;
1775;SDS011;885;42.626;23.200;2022-07-29T00:04:05;8.50;;;7.60;;
1775;SDS011;885;42.626;23.200;2022-07-29T00:06:32;8.73;;;6.33;;
1775;SDS011;885;42.626;23.200;2022-07-29T00:08:59;7.30;;;6.60;;
1775;SDS011;885;42.626;23.200;2022-07-29T00:11:26;7.40;;;6.70;;
1775;SDS011;885;42.626;23.200;2022-07-29T00:13:52;8.20;;;7.40;;
1775;SDS011;885;42.626;23.200;2022-07-29T00:16:19;9.00;;;8.13;;
1775;SDS011;885;42.626;23.200;2022-07-29T00:18:46;9.37;;;7.67;;
1775;SDS011;885;42.626;23.200;2022-07-29T00:21:14;9.70;;;8.70;;
1775;SDS011;885;42.626;23.200;2022-07-29T00:23:41;10.90;;;7.40;;
1775;SDS011;885;42.626;23.200;2022-07-29T00:26:08;8.30;;;7.50;;
1775;SDS011;885;42.626;23.200;2022-07-29T00:28:35;12.43;;;9.60;;
1775;SDS011;885;42.626;23.200;2022-07-29T00:31:02;12.53;;;9.20;;
1775;SDS011;885;42.626;23.200;2022-07-29T00:33:29;10.73;;;9.60;;
1775;SDS011;885;42.626;23.200;2022-07-29T00:35:55;11.50;;;9.10;;
1775;SDS011;885;42.626;23.200;2022-07-29T00:38:23;9.37;;;8.47;;
1775;SDS011;885;42.626;23.200;2022-07-29T00:40:49;11.03;;;8.83;;
1775;SDS011;885;42.626;23.200;2022-07-29T00:43:16;10.53;;;9.20;;
1775;SDS011;885;42.626;23.200;2022-07-29T00:45:43;9.00;;;7.70;;
1775;SDS011;885;42.626;23.200;2022-07-29T00:48:10;10.07;;;7.47;;
1775;SDS011;885;42.626;23.200;2022-07-29T00:50:38;9.67;;;7.40;;
1775;SDS011;885;42.626;23.200;2022-07-29T00:53:05;9.07;;;8.17;;
1775;SDS011;885;42.626;23.200;2022-07-29T00:55:34;8.57;;;7.60;;
1775;SDS011;885;42.626;23.200;2022-07-29T00:58:01;6.63;;;5.97;;
1775;SDS011;885;42.626;23.200;2022-07-29T01:00:29;7.37;;;6.67;;
1775;SDS011;885;42.626;23.200;2022-07-29T01:02:56;7.83;;;7.13;;
1775;SDS011;885;42.626;23.200;2022-07-29T01:05:23;8.97;;;6.90;;
1775;SDS011;885;42.626;23.200;2022-07-29T01:07:52;6.67;;;6.07;;
1775;SDS011;885;42.626;23.200;2022-07-29T01:10:20;7.37;;;6.60;;
1775;SDS011;885;42.626;23.200;2022-07-29T01:12:51;9.40;;;7.27;;
1775;SDS011;885;42.626;23.200;2022-07-29T01:15:19;9.57;;;6.57;;
1775;SDS011;885;42.626;23.200;2022-07-29T01:17:50;8.37;;;6.80;;
1775;SDS011;885;42.626;23.200;2022-07-29T01:20:24;7.10;;;6.40;;
1775;SDS011;885;42.626;23.200;2022-07-29T01:23:12;8.33;;;7.53;;
1775;SDS011;885;42.626;23.200;2022-07-29T01:25:58;8.43;;;7.53;;
1775;SDS011;885;42.626;23.200;2022-07-29T01:28:54;8.93;;;8.03;;
1775;SDS011;885;42.626;23.200;2022-07-29T01:31:32;8.23;;;7.40;;
1775;SDS011;885;42.626;23.200;2022-07-29T01:34:05;8.27;;;7.47;;
1775;SDS011;885;42.626;23.200;2022-07-29T01:36:35;7.80;;;7.10;;
1775;SDS011;885;42.626;23.200;2022-07-29T01:39:08;7.90;;;6.93;;
1775;SDS011;885;42.626;23.200;2022-07-29T01:41:38;7.60;;;6.73;;
1775;SDS011;885;42.626;23.200;2022-07-29T01:44:13;6.40;;;5.80;;
1775;SDS011;885;42.626;23.200;2022-07-29T01:46:48;7.33;;;6.63;;
1775;SDS011;885;42.626;23.200;2022-07-29T01:49:20;6.50;;;5.80;;
1775;SDS011;885;42.626;23.200;2022-07-29T01:51:50;7.27;;;6.57;;
1775;SDS011;885;42.626;23.200;2022-07-29T01:54:21;9.67;;;7.27;;
1775;SDS011;885;42.626;23.200;2022-07-29T01:56:55;6.67;;;6.07;;
1775;SDS011;885;42.626;23.200;2022-07-29T01:59:26;7.07;;;6.37;;
1775;SDS011;885;42.626;23.200;2022-07-29T02:01:54;7.27;;;6.53;;
1775;SDS011;885;42.626;23.200;2022-07-29T02:04:24;8.07;;;6.60;;
1775;SDS011;885;42.626;23.200;2022-07-29T02:06:54;7.67;;;6.80;;
1775;SDS011;885;42.626;23.200;2022-07-29T02:09:25;14.13;;;7.23;;
1775;SDS011;885;42.626;23.200;2022-07-29T02:11:53;7.73;;;7.03;;
1775;SDS011;885;42.626;23.200;2022-07-29T02:14:22;11.07;;;8.03;;
1775;SDS011;885;42.626;23.200;2022-07-29T02:16:51;8.70;;;7.03;;
1775;SDS011;885;42.626;23.200;2022-07-29T02:19:21;7.90;;;6.73;;
1775;SDS011;885;42.626;23.200;2022-07-29T02:21:50;7.30;;;6.60;;
1775;SDS011;885;42.626;23.200;2022-07-29T02:24:19;7.60;;;6.80;;
1775;SDS011;885;42.626;23.200;2022-07-29T02:26:49;6.63;;;5.80;;
1775;SDS011;885;42.626;23.200;2022-07-29T02:29:18;9.30;;;6.90;;
1775;SDS011;885;42.626;23.200;2022-07-29T02:31:48;8.53;;;6.60;;
1775;SDS011;885;42.626;23.200;2022-07-29T02:34:18;9.80;;;7.23;;
1775;SDS011;885;42.626;23.200;2022-07-29T02:36:46;7.10;;;6.40;;
1775;SDS011;885;42.626;23.200;2022-07-29T02:39:14;7.00;;;6.37;;
1775;SDS011;885;42.626;23.200;2022-07-29T02:41:43;7.53;;;6.73;;
1775;SDS011;885;42.626;23.200;2022-07-29T02:44:13;7.13;;;6.37;;
1775;SDS011;885;42.626;23.200;2022-07-29T02:46:43;7.40;;;6.70;;
1775;SDS011;885;42.626;23.200;2022-07-29T02:49:16;11.67;;;7.77;;
1775;SDS011;885;42.626;23.200;2022-07-29T02:51:51;6.90;;;6.20;;
1775;SDS011;885;42.626;23.200;2022-07-29T02:54:25;12.40;;;7.50;;
1775;SDS011;885;42.626;23.200;2022-07-29T02:56:56;8.60;;;7.13;;
1775;SDS011;885;42.626;23.200;2022-07-29T02:59:27;7.43;;;6.70;;
1775;SDS011;885;42.626;23.200;2022-07-29T03:01:57;7.60;;;6.90;;
1775;SDS011;885;42.626;23.200;2022-07-29T03:04:27;7.03;;;6.33;;
1775;SDS011;885;42.626;23.200;2022-07-29T03:06:55;7.03;;;6.33;;
1775;SDS011;885;42.626;23.200;2022-07-29T03:09:24;7.07;;;6.37;;
1775;SDS011;885;42.626;23.200;2022-07-29T03:11:52;6.30;;;5.70;;
1775;SDS011;885;42.626;23.200;2022-07-29T03:14:20;7.17;;;5.73;;
1775;SDS011;885;42.626;23.200;2022-07-29T03:16:48;5.93;;;5.33;;
1775;SDS011;885;42.626;23.200;2022-07-29T03:19:16;8.10;;;7.30;;
1775;SDS011;885;42.626;23.200;2022-07-29T03:21:44;11.57;;;7.20;;
1775;SDS011;885;42.626;23.200;2022-07-29T03:24:23;9.13;;;8.13;;
1775;SDS011;885;42.626;23.200;2022-07-29T03:26:51;6.93;;;6.33;;
1775;SDS011;885;42.626;23.200;2022-07-29T03:29:18;8.00;;;6.90;;
1775;SDS011;885;42.626;23.200;2022-07-29T03:31:45;6.70;;;6.00;;
1775;SDS011;885;42.626;23.200;2022-07-29T03:34:11;6.67;;;5.97;;
1775;SDS011;885;42.626;23.200;2022-07-29T03:36:38;6.80;;;6.20;;
1775;SDS011;885;42.626;23.200;2022-07-29T03:39:06;6.37;;;5.77;;
1775;SDS011;885;42.626;23.200;2022-07-29T03:41:36;8.07;;;7.27;;
1775;SDS011;885;42.626;23.200;2022-07-29T03:44:06;7.07;;;6.40;;
1775;SDS011;885;42.626;23.200;2022-07-29T03:46:35;5.60;;;5.10;;
1775;SDS011;885;42.626;23.200;2022-07-29T03:49:03;5.97;;;5.37;;
1775;SDS011;885;42.626;23.200;2022-07-29T03:51:33;6.07;;;5.57;;
1775;SDS011;885;42.626;23.200;2022-07-29T03:54:01;6.40;;;5.60;;
1775;SDS011;885;42.626;23.200;2022-07-29T03:56:29;6.10;;;5.50;;
1775;SDS011;885;42.626;23.200;2022-07-29T03:59:01;5.40;;;4.90;;
1775;SDS011;885;42.626;23.200;2022-07-29T04:01:29;5.40;;;4.97;;
1775;SDS011;885;42.626;23.200;2022-07-29T04:03:58;8.43;;;5.53;;
1775;SDS011;885;42.626;23.200;2022-07-29T04:06:27;6.77;;;6.13;;
1775;SDS011;885;42.626;23.200;2022-07-29T04:08:53;5.10;;;4.60;;
1775;SDS011;885;42.626;23.200;2022-07-29T04:11:20;5.13;;;4.63;;
1775;SDS011;885;42.626;23.200;2022-07-29T04:13:48;6.93;;;5.10;;
1775;SDS011;885;42.626;23.200;2022-07-29T04:16:15;4.43;;;4.00;;
1775;SDS011;885;42.626;23.200;2022-07-29T04:18:42;4.53;;;4.13;;
1775;SDS011;885;42.626;23.200;2022-07-29T04:21:09;5.00;;;4.50;;
1775;SDS011;885;42.626;23.200;2022-07-29T04:23:35;5.23;;;4.80;;
1775;SDS011;885;42.626;23.200;2022-07-29T04:26:02;7.80;;;5.67;;
1775;SDS011;885;42.626;23.200;2022-07-29T04:28:29;7.50;;;6.33;;
1775;SDS011;885;42.626;23.200;2022-07-29T04:30:57;8.90;;;5.93;;
1775;SDS011;885;42.626;23.200;2022-07-29T04:33:24;5.97;;;5.47;;
1775;SDS011;885;42.626;23.200;2022-07-29T04:35:51;8.17;;;6.60;;
1775;SDS011;885;42.626;23.200;2022-07-29T04:38:17;8.00;;;7.20;;
1775;SDS011;885;42.626;23.200;2022-07-29T04:40:44;7.07;;;6.40;;
1775;SDS011;885;42.626;23.200;2022-07-29T04:43:11;7.47;;;6.70;;
1775;SDS011;885;42.626;23.200;2022-07-29T04:45:38;6.53;;;5.93;;
1775;SDS011;885;42.626;23.200;2022-07-29T04:48:06;7.80;;;7.10;;
1775;SDS011;885;42.626;23.200;2022-07-29T04:50:33;6.47;;;5.87;;
1775;SDS011;885;42.626;23.200;2022-07-29T04:53:00;8.67;;;7.73;;
1775;SDS011;885;42.626;23.200;2022-07-29T04:55:26;7.20;;;6.53;;
1775;SDS011;885;42.626;23.200;2022-07-29T04:57:53;7.23;;;6.53;;
1775;SDS011;885;42.626;23.200;2022-07-29T05:00:20;6.73;;;6.03;;
1775;SDS011;885;42.626;23.200;2022-07-29T05:02:48;6.63;;;5.97;;
1775;SDS011;885;42.626;23.200;2022-07-29T05:05:16;6.60;;;6.00;;
1775;SDS011;885;42.626;23.200;2022-07-29T05:07:43;10.60;;;7.07;;
1775;SDS011;885;42.626;23.200;2022-07-29T05:10:10;8.23;;;7.30;;
1775;SDS011;885;42.626;23.200;2022-07-29T05:12:36;7.07;;;6.40;;
1775;SDS011;885;42.626;23.200;2022-07-29T05:15:04;7.40;;;6.60;;
1775;SDS011;885;42.626;23.200;2022-07-29T05:17:32;7.50;;;6.60;;
1775;SDS011;885;42.626;23.200;2022-07-29T05:19:58;7.83;;;7.00;;
1775;SDS011;885;42.626;23.200;2022-07-29T05:22:26;7.20;;;6.57;;
1775;SDS011;885;42.626;23.200;2022-07-29T05:24:53;8.13;;;7.33;;
1775;SDS011;885;42.626;23.200;2022-07-29T05:27:20;6.87;;;6.17;;
1775;SDS011;885;42.626;23.200;2022-07-29T05:29:47;7.00;;;6.40;;
1775;SDS011;885;42.626;23.200;2022-07-29T05:32:14;8.00;;;7.27;;
1775;SDS011;885;42.626;23.200;2022-07-29T05:34:40;7.30;;;6.60;;
1775;SDS011;885;42.626;23.200;2022-07-29T05:37:07;7.63;;;6.93;;
1775;SDS011;885;42.626;23.200;2022-07-29T05:39:36;9.73;;;7.90;;
1775;SDS011;885;42.626;23.200;2022-07-29T05:42:03;7.27;;;6.57;;
1775;SDS011;885;42.626;23.200;2022-07-29T05:44:35;7.23;;;6.40;;
1775;SDS011;885;42.626;23.200;2022-07-29T05:47:02;6.70;;;6.10;;
1775;SDS011;885;42.626;23.200;2022-07-29T05:49:29;7.17;;;6.57;;
1775;SDS011;885;42.626;23.200;2022-07-29T05:51:56;8.27;;;7.50;;
1775;SDS011;885;42.626;23.200;2022-07-29T05:54:23;8.67;;;6.80;;
1775;SDS011;885;42.626;23.200;2022-07-29T05:56:52;7.87;;;7.17;;
1775;SDS011;885;42.626;23.200;2022-07-29T05:59:20;7.73;;;7.03;;
1775;SDS011;885;42.626;23.200;2022-07-29T06:01:46;8.37;;;7.67;;
1775;SDS011;885;42.626;23.200;2022-07-29T06:04:13;8.03;;;7.27;;
1775;SDS011;885;42.626;23.200;2022-07-29T06:06:40;7.33;;;6.73;;
1775;SDS011;885;42.626;23.200;2022-07-29T06:09:07;7.00;;;6.30;;
1775;SDS011;885;42.626;23.200;2022-07-29T06:11:37;6.73;;;6.23;;
1775;SDS011;885;42.626;23.200;2022-07-29T06:14:05;7.23;;;6.63;;
1775;SDS011;885;42.626;23.200;2022-07-29T06:16:32;7.57;;;6.87;;
1775;SDS011;885;42.626;23.200;2022-07-29T06:18:58;7.50;;;6.73;;
1775;SDS011;885;42.626;23.200;2022-07-29T06:21:25;8.33;;;7.53;;
1775;SDS011;885;42.626;23.200;2022-07-29T06:23:52;8.13;;;7.43;;
1775;SDS011;885;42.626;23.200;2022-07-29T06:26:19;9.80;;;8.80;;
1775;SDS011;885;42.626;23.200;2022-07-29T06:28:45;13.23;;;11.13;;
1775;SDS011;885;42.626;23.200;2022-07-29T06:31:14;11.30;;;10.17;;
1775;SDS011;885;42.626;23.200;2022-07-29T06:33:40;11.00;;;10.00;;
1775;SDS011;885;42.626;23.200;2022-07-29T06:36:07;10.87;;;9.80;;
1775;SDS011;885;42.626;23.200;2022-07-29T06:38:35;9.97;;;8.93;;
1775;SDS011;885;42.626;23.200;2022-07-29T06:41:03;10.90;;;10.00;;
1775;SDS011;885;42.626;23.200;2022-07-29T06:43:31;9.00;;;8.07;;
1775;SDS011;885;42.626;23.200;2022-07-29T06:46:01;11.77;;;8.00;;
1775;SDS011;885;42.626;23.200;2022-07-29T06:48:31;10.10;;;7.90;;
1775;SDS011;885;42.626;23.200;2022-07-29T06:50:59;8.67;;;7.77;;
1775;SDS011;885;42.626;23.200;2022-07-29T06:53:27;9.43;;;6.90;;
1775;SDS011;885;42.626;23.200;2022-07-29T06:55:54;11.37;;;8.67;;
1775;SDS011;885;42.626;23.200;2022-07-29T06:58:23;9.97;;;7.80;;
1775;SDS011;885;42.626;23.200;2022-07-29T07:00:50;9.77;;;7.60;;
1775;SDS011;885;42.626;23.200;2022-07-29T07:03:17;7.87;;;7.00;;
1775;SDS011;885;42.626;23.200;2022-07-29T07:05:46;8.20;;;7.50;;
1775;SDS011;885;42.626;23.200;2022-07-29T07:08:13;8.50;;;7.60;;
1775;SDS011;885;42.626;23.200;2022-07-29T07:10:41;9.57;;;8.57;;
1775;SDS011;885;42.626;23.200;2022-07-29T07:13:10;8.60;;;7.73;;
1775;SDS011;885;42.626;23.200;2022-07-29T07:15:37;9.47;;;8.50;;
1775;SDS011;885;42.626;23.200;2022-07-29T07:18:04;8.93;;;7.80;;
1775;SDS011;885;42.626;23.200;2022-07-29T07:20:32;8.60;;;7.77;;
1775;SDS011;885;42.626;23.200;2022-07-29T07:23:00;11.50;;;8.90;;
1775;SDS011;885;42.626;23.200;2022-07-29T07:25:27;9.20;;;8.40;;
1775;SDS011;885;42.626;23.200;2022-07-29T07:27:53;13.53;;;8.47;;
1775;SDS011;885;42.626;23.200;2022-07-29T07:30:20;10.90;;;7.90;;
1775;SDS011;885;42.626;23.200;2022-07-29T07:32:47;9.17;;;8.37;;
1775;SDS011;885;42.626;23.200;2022-07-29T07:35:14;9.23;;;8.37;;
1775;SDS011;885;42.626;23.200;2022-07-29T07:37:41;9.77;;;8.87;;
1775;SDS011;885;42.626;23.200;2022-07-29T07:40:10;8.70;;;7.83;;
1775;SDS011;885;42.626;23.200;2022-07-29T07:42:37;8.23;;;7.43;;
1775;SDS011;885;42.626;23.200;2022-07-29T07:45:04;9.53;;;8.27;;
1775;SDS011;885;42.626;23.200;2022-07-29T07:47:34;10.50;;;8.30;;
1775;SDS011;885;42.626;23.200;2022-07-29T07:50:01;9.97;;;8.23;;
1775;SDS011;885;42.626;23.200;2022-07-29T07:52:29;9.03;;;8.17;;
1775;SDS011;885;42.626;23.200;2022-07-29T07:54:55;10.80;;;7.87;;
1775;SDS011;885;42.626;23.200;2022-07-29T07:57:24;9.53;;;8.17;;
1775;SDS011;885;42.626;23.200;2022-07-29T07:59:50;8.23;;;7.43;;
1775;SDS011;885;42.626;23.200;2022-07-29T08:02:17;7.67;;;6.97;;
1775;SDS011;885;42.626;23.200;2022-07-29T08:04:44;9.23;;;8.00;;
1775;SDS011;885;42.626;23.200;2022-07-29T08:07:11;8.93;;;8.13;;
1775;SDS011;885;42.626;23.200;2022-07-29T08:09:39;10.10;;;8.67;;
1775;SDS011;885;42.626;23.200;2022-07-29T08:12:06;9.97;;;8.90;;
1775;SDS011;885;42.626;23.200;2022-07-29T08:14:35;10.43;;;9.33;;
1775;SDS011;885;42.626;23.200;2022-07-29T08:17:02;11.73;;;8.20;;
1775;SDS011;885;42.626;23.200;2022-07-29T08:19:28;8.70;;;8.00;;
1775;SDS011;885;42.626;23.200;2022-07-29T08:21:55;9.17;;;8.23;;
1775;SDS011;885;42.626;23.200;2022-07-29T08:24:22;11.23;;;9.17;;
1775;SDS011;885;42.626;23.200;2022-07-29T08:27:06;8.80;;;8.00;;
1775;SDS011;885;42.626;23.200;2022-07-29T08:29:35;9.30;;;7.37;;
1775;SDS011;885;42.626;23.200;2022-07-29T08:32:02;9.40;;;7.23;;
1775;SDS011;885;42.626;23.200;2022-07-29T08:34:29;8.53;;;7.83;;
1775;SDS011;885;42.626;23.200;2022-07-29T08:36:56;7.90;;;7.20;;
1775;SDS011;885;42.626;23.200;2022-07-29T08:39:23;8.60;;;6.87;;
1775;SDS011;885;42.626;23.200;2022-07-29T08:41:50;7.50;;;6.80;;
1775;SDS011;885;42.626;23.200;2022-07-29T08:44:17;6.80;;;6.20;;
1775;SDS011;885;42.626;23.200;2022-07-29T08:46:45;8.60;;;7.70;;
1775;SDS011;885;42.626;23.200;2022-07-29T08:49:12;6.77;;;6.17;;
1775;SDS011;885;42.626;23.200;2022-07-29T08:51:39;6.63;;;6.13;;
1775;SDS011;885;42.626;23.200;2022-07-29T08:54:07;6.97;;;6.27;;
1775;SDS011;885;42.626;23.200;2022-07-29T08:56:35;7.70;;;6.87;;
1775;SDS011;885;42.626;23.200;2022-07-29T08:59:02;6.67;;;6.07;;
1775;SDS011;885;42.626;23.200;2022-07-29T09:01:32;6.30;;;5.67;;
1775;SDS011;885;42.626;23.200;2022-07-29T09:04:01;9.23;;;6.30;;
1775;SDS011;885;42.626;23.200;2022-07-29T09:06:31;6.13;;;5.57;;
1775;SDS011;885;42.626;23.200;2022-07-29T09:09:00;7.20;;;6.43;;
1775;SDS011;885;42.626;23.200;2022-07-29T09:11:29;12.47;;;6.27;;
1775;SDS011;885;42.626;23.200;2022-07-29T09:13:56;6.30;;;5.70;;
1775;SDS011;885;42.626;23.200;2022-07-29T09:16:22;6.40;;;5.80;;
1775;SDS011;885;42.626;23.200;2022-07-29T09:18:49;6.60;;;6.00;;
1775;SDS011;885;42.626;23.200;2022-07-29T09:21:17;6.73;;;6.03;;
1775;SDS011;885;42.626;23.200;2022-07-29T09:24:04;8.20;;;5.90;;
1775;SDS011;885;42.626;23.200;2022-07-29T09:26:32;6.07;;;5.57;;
1775;SDS011;885;42.626;23.200;2022-07-29T09:29:07;5.63;;;5.23;;
1775;SDS011;885;42.626;23.200;2022-07-29T09:31:35;6.83;;;5.63;;
1775;SDS011;885;42.626;23.200;2022-07-29T09:34:04;6.10;;;5.53;;
1775;SDS011;885;42.626;23.200;2022-07-29T09:36:39;6.77;;;6.10;;
1775;SDS011;885;42.626;23.200;2022-07-29T09:39:06;6.07;;;5.60;;
1775;SDS011;885;42.626;23.200;2022-07-29T09:41:43;6.63;;;6.10;;
1775;SDS011;885;42.626;23.200;2022-07-29T09:44:11;6.80;;;6.07;;
1775;SDS011;885;42.626;23.200;2022-07-29T09:46:39;6.70;;;6.07;;
1775;SDS011;885;42.626;23.200;2022-07-29T09:49:08;6.40;;;5.90;;
1775;SDS011;885;42.626;23.200;2022-07-29T09:51:36;7.00;;;6.50;;
1775;SDS011;885;42.626;23.200;2022-07-29T09:56:50;7.07;;;6.57;;
1775;SDS011;885;42.626;23.200;2022-07-29T09:59:17;6.90;;;6.20;;
1775;SDS011;885;42.626;23.200;2022-07-29T10:01:45;7.23;;;6.40;;
1775;SDS011;885;42.626;23.200;2022-07-29T10:04:12;7.80;;;6.50;;
1775;SDS011;885;42.626;23.200;2022-07-29T10:09:26;7.03;;;6.50;;
1775;SDS011;885;42.626;23.200;2022-07-29T10:12:04;7.30;;;6.50;;
1775;SDS011;885;42.626;23.200;2022-07-29T10:14:32;6.80;;;6.20;;
1775;SDS011;885;42.626;23.200;2022-07-29T10:16:59;6.60;;;5.77;;
1775;SDS011;885;42.626;23.200;2022-07-29T10:19:27;7.00;;;6.30;;
1775;SDS011;885;42.626;23.200;2022-07-29T10:21:56;6.53;;;5.93;;
1775;SDS011;885;42.626;23.200;2022-07-29T10:24:25;6.83;;;6.23;;
1775;SDS011;885;42.626;23.200;2022-07-29T10:26:53;7.50;;;6.90;;
1775;SDS011;885;42.626;23.200;2022-07-29T10:29:21;7.17;;;6.57;;
1775;SDS011;885;42.626;23.200;2022-07-29T10:31:49;8.00;;;7.23;;
1775;SDS011;885;42.626;23.200;2022-07-29T10:34:30;7.63;;;6.57;;
1775;SDS011;885;42.626;23.200;2022-07-29T10:37:14;6.63;;;5.93;;
1775;SDS011;885;42.626;23.200;2022-07-29T10:39:51;7.17;;;6.57;;
1775;SDS011;885;42.626;23.200;2022-07-29T10:42:23;7.60;;;6.90;;
1775;SDS011;885;42.626;23.200;2022-07-29T10:44:51;8.57;;;7.77;;
1775;SDS011;885;42.626;23.200;2022-07-29T10:47:20;7.67;;;6.87;;
1775;SDS011;885;42.626;23.200;2022-07-29T10:49:57;7.90;;;7.10;;
1775;SDS011;885;42.626;23.200;2022-07-29T10:52:37;6.83;;;6.13;;
1775;SDS011;885;42.626;23.200;2022-07-29T10:55:33;8.77;;;6.53;;
1775;SDS011;885;42.626;23.200;2022-07-29T11:00:48;7.20;;;6.70;;
1775;SDS011;885;42.626;23.200;2022-07-29T11:06:12;6.40;;;5.80;;
1775;SDS011;885;42.626;23.200;2022-07-29T11:08:39;7.90;;;7.27;;
1775;SDS011;885;42.626;23.200;2022-07-29T11:14:05;8.43;;;6.47;;
1775;SDS011;885;42.626;23.200;2022-07-29T11:19:27;7.43;;;6.83;;
1775;SDS011;885;42.626;23.200;2022-07-29T11:21:54;7.73;;;7.13;;
1775;SDS011;885;42.626;23.200;2022-07-29T11:24:21;7.60;;;6.90;;
1775;SDS011;885;42.626;23.200;2022-07-29T11:30:04;7.53;;;6.93;;
1775;SDS011;885;42.626;23.200;2022-07-29T11:32:35;8.37;;;7.57;;
1775;SDS011;885;42.626;23.200;2022-07-29T11:35:10;7.27;;;6.63;;
1775;SDS011;885;42.626;23.200;2022-07-29T11:37:39;7.80;;;7.10;;
1775;SDS011;885;42.626;23.200;2022-07-29T11:40:10;7.50;;;6.80;;
1775;SDS011;885;42.626;23.200;2022-07-29T11:42:43;7.17;;;6.60;;
1775;SDS011;885;42.626;23.200;2022-07-29T11:45:12;7.37;;;6.67;;
1775;SDS011;885;42.626;23.200;2022-07-29T11:47:46;7.27;;;6.67;;
1775;SDS011;885;42.626;23.200;2022-07-29T11:50:16;8.67;;;7.97;;
1775;SDS011;885;42.626;23.200;2022-07-29T11:52:52;8.27;;;7.43;;
1775;SDS011;885;42.626;23.200;2022-07-29T11:55:20;7.50;;;6.87;;
1775;SDS011;885;42.626;23.200;2022-07-29T11:57:50;8.60;;;7.93;;
1775;SDS011;885;42.626;23.200;2022-07-29T12:00:23;8.30;;;7.60;;
1775;SDS011;885;42.626;23.200;2022-07-29T12:02:54;7.67;;;6.97;;
1775;SDS011;885;42.626;23.200;2022-07-29T12:05:30;9.23;;;8.43;;
1775;SDS011;885;42.626;23.200;2022-07-29T12:08:04;8.63;;;7.93;;
1775;SDS011;885;42.626;23.200;2022-07-29T12:10:32;8.50;;;7.80;;
1775;SDS011;885;42.626;23.200;2022-07-29T12:13:00;8.90;;;8.20;;
1775;SDS011;885;42.626;23.200;2022-07-29T12:15:27;10.00;;;9.10;;
1775;SDS011;885;42.626;23.200;2022-07-29T12:17:54;10.57;;;9.60;;
1775;SDS011;885;42.626;23.200;2022-07-29T12:20:24;9.63;;;8.80;;
1775;SDS011;885;42.626;23.200;2022-07-29T12:22:52;9.07;;;8.27;;
1775;SDS011;885;42.626;23.200;2022-07-29T12:25:20;9.07;;;8.37;;
1775;SDS011;885;42.626;23.200;2022-07-29T12:27:56;7.73;;;7.03;;
1775;SDS011;885;42.626;23.200;2022-07-29T12:30:35;8.13;;;7.53;;
1775;SDS011;885;42.626;23.200;2022-07-29T12:33:15;9.40;;;7.37;;
1775;SDS011;885;42.626;23.200;2022-07-29T12:35:44;8.53;;;7.83;;
1775;SDS011;885;42.626;23.200;2022-07-29T12:38:13;7.47;;;6.87;;
1775;SDS011;885;42.626;23.200;2022-07-29T12:40:41;8.70;;;8.00;;
1775;SDS011;885;42.626;23.200;2022-07-29T12:43:10;7.50;;;6.90;;
1775;SDS011;885;42.626;23.200;2022-07-29T12:45:41;8.07;;;7.47;;
1775;SDS011;885;42.626;23.200;2022-07-29T12:48:09;8.00;;;7.40;;
1775;SDS011;885;42.626;23.200;2022-07-29T12:50:37;7.43;;;6.83;;
1775;SDS011;885;42.626;23.200;2022-07-29T12:53:18;7.43;;;6.83;;
1775;SDS011;885;42.626;23.200;2022-07-29T12:55:46;6.90;;;6.40;;
1775;SDS011;885;42.626;23.200;2022-07-29T12:58:25;6.60;;;5.93;;
1775;SDS011;885;42.626;23.200;2022-07-29T13:01:02;6.87;;;6.27;;
1775;SDS011;885;42.626;23.200;2022-07-29T13:03:41;7.50;;;6.90;;
1775;SDS011;885;42.626;23.200;2022-07-29T13:06:32;6.97;;;5.80;;
1775;SDS011;885;42.626;23.200;2022-07-29T13:09:01;6.50;;;6.00;;
1775;SDS011;885;42.626;23.200;2022-07-29T13:11:37;7.27;;;5.87;;
1775;SDS011;885;42.626;23.200;2022-07-29T13:14:06;6.83;;;6.27;;
1775;SDS011;885;42.626;23.200;2022-07-29T13:16:36;7.00;;;6.37;;
1775;SDS011;885;42.626;23.200;2022-07-29T13:19:32;6.30;;;5.80;;
1775;SDS011;885;42.626;23.200;2022-07-29T13:22:00;6.10;;;5.50;;
1775;SDS011;885;42.626;23.200;2022-07-29T13:24:26;6.53;;;6.03;;
1775;SDS011;885;42.626;23.200;2022-07-29T13:26:53;6.20;;;5.70;;
1775;SDS011;885;42.626;23.200;2022-07-29T13:29:20;7.00;;;6.17;;
1775;SDS011;885;42.626;23.200;2022-07-29T13:31:48;7.27;;;6.60;;
1775;SDS011;885;42.626;23.200;2022-07-29T13:34:15;6.77;;;6.00;;
1775;SDS011;885;42.626;23.200;2022-07-29T13:36:43;6.17;;;5.67;;
1775;SDS011;885;42.626;23.200;2022-07-29T13:39:10;8.53;;;6.70;;
1775;SDS011;885;42.626;23.200;2022-07-29T13:41:37;6.90;;;6.30;;
1775;SDS011;885;42.626;23.200;2022-07-29T13:44:04;6.97;;;6.37;;
1775;SDS011;885;42.626;23.200;2022-07-29T13:46:30;7.80;;;7.10;;
1775;SDS011;885;42.626;23.200;2022-07-29T13:48:59;7.90;;;7.23;;
1775;SDS011;885;42.626;23.200;2022-07-29T13:51:25;8.67;;;7.77;;
1775;SDS011;885;42.626;23.200;2022-07-29T13:53:52;8.70;;;7.97;;
1775;SDS011;885;42.626;23.200;2022-07-29T13:56:19;9.03;;;8.33;;
1775;SDS011;885;42.626;23.200;2022-07-29T13:58:46;8.30;;;7.53;;
1775;SDS011;885;42.626;23.200;2022-07-29T14:01:12;8.60;;;7.80;;
1775;SDS011;885;42.626;23.200;2022-07-29T14:03:39;9.23;;;8.30;;
1775;SDS011;885;42.626;23.200;2022-07-29T14:06:09;9.17;;;7.63;;
1775;SDS011;885;42.626;23.200;2022-07-29T14:08:36;8.60;;;7.80;;
1775;SDS011;885;42.626;23.200;2022-07-29T14:11:03;8.27;;;7.57;;
1775;SDS011;885;42.626;23.200;2022-07-29T14:13:29;8.80;;;8.10;;
1775;SDS011;885;42.626;23.200;2022-07-29T14:15:56;8.17;;;7.57;;
1775;SDS011;885;42.626;23.200;2022-07-29T14:18:23;7.03;;;6.43;;
1775;SDS011;885;42.626;23.200;2022-07-29T14:20:50;7.67;;;6.97;;
1775;SDS011;885;42.626;23.200;2022-07-29T14:23:18;10.13;;;6.90;;
1775;SDS011;885;42.626;23.200;2022-07-29T14:25:45;7.60;;;6.90;;
1775;SDS011;885;42.626;23.200;2022-07-29T14:28:12;8.40;;;7.70;;
1775;SDS011;885;42.626;23.200;2022-07-29T14:30:39;7.47;;;6.87;;
1775;SDS011;885;42.626;23.200;2022-07-29T14:33:06;7.80;;;7.13;;
1775;SDS011;885;42.626;23.200;2022-07-29T14:35:33;8.03;;;7.33;;
1775;SDS011;885;42.626;23.200;2022-07-29T14:37:59;7.53;;;6.90;;
1775;SDS011;885;42.626;23.200;2022-07-29T14:40:28;7.83;;;7.20;;
1775;SDS011;885;42.626;23.200;2022-07-29T14:42:55;7.70;;;7.10;;
1775;SDS011;885;42.626;23.200;2022-07-29T14:45:21;7.37;;;6.77;;
1775;SDS011;885;42.626;23.200;2022-07-29T14:47:48;7.17;;;6.57;;
1775;SDS011;885;42.626;23.200;2022-07-29T14:50:16;7.53;;;6.80;;
1775;SDS011;885;42.626;23.200;2022-07-29T14:52:43;7.27;;;6.67;;
1775;SDS011;885;42.626;23.200;2022-07-29T14:55:10;8.50;;;7.80;;
1775;SDS011;885;42.626;23.200;2022-07-29T14:57:38;8.50;;;7.80;;
1775;SDS011;885;42.626;23.200;2022-07-29T15:00:05;8.40;;;7.70;;
1775;SDS011;885;42.626;23.200;2022-07-29T15:02:33;8.13;;;7.47;;
1775;SDS011;885;42.626;23.200;2022-07-29T15:05:00;8.40;;;7.50;;
1775;SDS011;885;42.626;23.200;2022-07-29T15:07:30;8.00;;;7.33;;
1775;SDS011;885;42.626;23.200;2022-07-29T15:09:57;8.13;;;7.43;;
1775;SDS011;885;42.626;23.200;2022-07-29T15:12:24;8.80;;;8.00;;
1775;SDS011;885;42.626;23.200;2022-07-29T15:14:52;9.63;;;8.73;;
1775;SDS011;885;42.626;23.200;2022-07-29T15:17:19;9.63;;;8.83;;
1775;SDS011;885;42.626;23.200;2022-07-29T15:19:46;9.07;;;8.23;;
1775;SDS011;885;42.626;23.200;2022-07-29T15:22:13;10.13;;;9.33;;
1775;SDS011;885;42.626;23.200;2022-07-29T15:24:40;10.03;;;9.07;;
1775;SDS011;885;42.626;23.200;2022-07-29T15:27:06;10.37;;;8.80;;
1775;SDS011;885;42.626;23.200;2022-07-29T15:29:38;9.10;;;8.30;;
1775;SDS011;885;42.626;23.200;2022-07-29T15:32:07;8.90;;;8.00;;
1775;SDS011;885;42.626;23.200;2022-07-29T15:34:34;9.60;;;8.80;;
1775;SDS011;885;42.626;23.200;2022-07-29T15:37:01;9.30;;;8.40;;
1775;SDS011;885;42.626;23.200;2022-07-29T15:39:28;8.83;;;7.93;;
1775;SDS011;885;42.626;23.200;2022-07-29T15:41:55;8.47;;;7.67;;
1775;SDS011;885;42.626;23.200;2022-07-29T15:44:22;10.50;;;9.63;;
1775;SDS011;885;42.626;23.200;2022-07-29T15:46:48;9.70;;;8.87;;